createdAt,value
2023-05-08T00:01:57.486Z,5.08
2023-05-08T00:04:27.961Z,4.95
2023-05-08T00:06:57.511Z,5.03
2023-05-08T00:09:28.747Z,4.58
2023-05-08T00:11:56.510Z,4.65
2023-05-08T00:14:26.324Z,4.94
2023-05-08T00:16:53.746Z,4.11
2023-05-08T00:19:20.893Z,4.15
2023-05-08T00:21:47.769Z,3.40
2023-05-08T00:24:14.631Z,3.18
2023-05-08T00:26:43.042Z,2.56
2023-05-08T00:29:10.508Z,1.98
2023-05-08T00:31:37.175Z,2.13
2023-05-08T00:34:03.753Z,1.91
2023-05-08T00:36:33.664Z,2.12
2023-05-08T00:39:00.469Z,2.16
2023-05-08T00:41:27.274Z,2.40
2023-05-08T00:43:57.878Z,2.66
2023-05-08T00:46:24.720Z,2.56
2023-05-08T00:48:51.694Z,2.20
2023-05-08T00:51:20.445Z,2.15
2023-05-08T00:53:49.253Z,2.37
2023-05-08T00:56:16.364Z,2.18
2023-05-08T00:58:47.854Z,1.92
2023-05-08T01:01:18.174Z,2.11
2023-05-08T01:03:45.135Z,2.00
2023-05-08T01:08:43.216Z,2.24
2023-05-08T01:11:13.316Z,2.48
2023-05-08T01:13:43.592Z,2.68
2023-05-08T01:16:11.829Z,2.68
2023-05-08T01:18:38.650Z,2.56
2023-05-08T01:21:08.843Z,2.51
2023-05-08T01:23:36.504Z,2.55
2023-05-08T01:26:05.237Z,2.75
2023-05-08T01:28:33.548Z,3.21
2023-05-08T01:31:01.911Z,2.99
2023-05-08T01:33:30.780Z,3.19
2023-05-08T01:35:59.661Z,3.56
2023-05-08T01:38:26.283Z,4.26
2023-05-08T01:41:00.271Z,3.99
2023-05-08T01:43:27.166Z,3.88
2023-05-08T01:45:55.592Z,3.65
2023-05-08T01:48:29.851Z,3.71
2023-05-08T01:50:58.775Z,4.11
2023-05-08T01:53:26.127Z,3.47
2023-05-08T01:55:55.666Z,3.19
2023-05-08T02:01:05.084Z,3.37
2023-05-08T02:03:39.210Z,3.19
2023-05-08T02:06:06.831Z,2.92
2023-05-08T02:08:41.589Z,2.42
2023-05-08T02:11:09.077Z,2.35
2023-05-08T02:13:37.058Z,2.57
2023-05-08T02:16:03.588Z,3.12
2023-05-08T02:18:33.754Z,3.61
2023-05-08T02:21:01.328Z,3.58
2023-05-08T02:23:27.865Z,3.03
2023-05-08T02:25:59.138Z,3.39
2023-05-08T02:28:26.588Z,3.45
2023-05-08T02:31:00.590Z,3.57
2023-05-08T02:33:28.919Z,3.25
2023-05-08T02:35:56.313Z,3.31
2023-05-08T02:38:26.554Z,3.58
2023-05-08T02:40:53.956Z,3.44
2023-05-08T02:43:20.788Z,3.30
2023-05-08T02:45:50.487Z,3.79
2023-05-08T02:48:20.146Z,3.57
2023-05-08T02:50:47.325Z,3.43
2023-05-08T02:53:21.407Z,3.52
2023-05-08T02:55:50.318Z,3.67
2023-05-08T02:58:17.668Z,3.38
2023-05-08T03:00:46.061Z,3.20
2023-05-08T03:03:13.393Z,3.11
2023-05-08T03:05:43.205Z,3.24
2023-05-08T03:08:09.674Z,3.14
2023-05-08T03:10:37.415Z,3.47
2023-05-08T03:13:06.333Z,3.21
2023-05-08T03:15:35.346Z,2.80
2023-05-08T03:18:02.696Z,2.57
2023-05-08T03:20:29.581Z,2.43
2023-05-08T03:22:56.426Z,2.16
2023-05-08T03:25:26.102Z,2.36
2023-05-08T03:27:59.941Z,2.36
2023-05-08T03:30:27.020Z,2.23
2023-05-08T03:32:55.270Z,2.43
2023-05-08T03:35:29.185Z,2.37
2023-05-08T03:37:56.672Z,2.33
2023-05-08T03:40:23.678Z,2.54
2023-05-08T03:42:51.168Z,2.60
2023-05-08T03:45:20.677Z,2.48
2023-05-08T03:47:50.218Z,2.59
2023-05-08T03:50:17.556Z,2.38
2023-05-08T03:52:46.450Z,2.69
2023-05-08T03:55:16.335Z,2.68
2023-05-08T03:57:43.164Z,2.74
2023-05-08T04:00:10.010Z,3.11
2023-05-08T04:05:33.375Z,3.24
2023-05-08T04:08:00.508Z,3.02
2023-05-08T04:13:19.801Z,4.02
2023-05-08T04:15:47.746Z,3.83
2023-05-08T04:18:15.527Z,3.60
2023-05-08T04:20:42.312Z,3.38
2023-05-08T04:23:09.510Z,3.38
2023-05-08T04:25:39.213Z,2.83
2023-05-08T04:28:06.318Z,2.99
2023-05-08T04:30:33.099Z,3.29
2023-05-08T04:33:00.631Z,3.12
2023-05-08T04:35:27.729Z,3.01
2023-05-08T04:37:56.464Z,3.12
2023-05-08T04:40:23.322Z,2.88
2023-05-08T04:42:49.899Z,2.98
2023-05-08T04:45:17.487Z,3.05
2023-05-08T04:47:44.465Z,3.21
2023-05-08T04:50:11.357Z,3.45
2023-05-08T04:52:37.941Z,2.70
2023-05-08T04:55:05.299Z,4.91
2023-05-08T04:57:33.350Z,6.77
2023-05-08T04:59:59.980Z,2.92
2023-05-08T05:02:26.879Z,2.99
2023-05-08T05:08:03.087Z,3.24
2023-05-08T05:10:29.889Z,3.45
2023-05-08T05:12:56.855Z,3.05
2023-05-08T05:15:23.739Z,3.21
2023-05-08T05:17:51.344Z,2.80
2023-05-08T05:20:20.398Z,3.12
2023-05-08T05:22:46.858Z,3.94
2023-05-08T05:25:14.007Z,3.71
2023-05-08T05:27:43.917Z,3.00
2023-05-08T05:30:10.588Z,2.88
2023-05-08T05:32:37.360Z,2.62
2023-05-08T05:35:04.383Z,3.20
2023-05-08T05:37:31.334Z,3.01
2023-05-08T05:39:57.874Z,2.92
2023-05-08T05:42:25.034Z,2.48
2023-05-08T05:44:52.486Z,2.63
2023-05-08T05:47:20.646Z,1.99
2023-05-08T05:49:47.204Z,2.19
2023-05-08T05:52:13.785Z,1.96
2023-05-08T05:54:40.373Z,1.99
2023-05-08T05:57:08.108Z,1.92
2023-05-08T05:59:34.773Z,2.29
2023-05-08T06:02:01.326Z,2.23
2023-05-08T06:04:28.050Z,2.55
2023-05-08T06:06:55.022Z,2.49
2023-05-08T06:12:26.720Z,2.48
2023-05-08T06:14:53.209Z,2.25
2023-05-08T06:17:20.797Z,2.24
2023-05-08T06:19:47.655Z,2.22
2023-05-08T06:22:14.130Z,2.43
2023-05-08T06:24:40.933Z,2.41
2023-05-08T06:27:07.875Z,2.15
2023-05-08T06:29:34.782Z,2.29
2023-05-08T06:32:03.752Z,2.46
2023-05-08T06:34:32.987Z,3.77
2023-05-08T06:37:00.399Z,4.58
2023-05-08T06:39:27.288Z,4.69
2023-05-08T06:41:55.890Z,4.56
2023-05-08T06:44:24.777Z,4.87
2023-05-08T06:46:52.402Z,4.69
2023-05-08T06:51:59.517Z,4.95
2023-05-08T06:54:26.024Z,4.45
2023-05-08T06:56:53.612Z,4.55
2023-05-08T06:59:20.520Z,4.43
2023-05-08T07:01:47.427Z,4.09
2023-05-08T07:04:14.429Z,4.22
2023-05-08T07:06:41.039Z,3.94
2023-05-08T07:09:09.685Z,2.95
2023-05-08T07:11:37.232Z,2.44
2023-05-08T07:14:04.762Z,2.67
2023-05-08T07:16:31.653Z,2.36
2023-05-08T07:18:58.419Z,2.53
2023-05-08T07:21:25.072Z,2.60
2023-05-08T07:23:52.589Z,2.27
2023-05-08T07:26:19.951Z,1.99
2023-05-08T07:28:46.444Z,1.99
2023-05-08T07:31:13.298Z,1.75
2023-05-08T07:33:41.687Z,1.63
2023-05-08T07:36:08.172Z,2.01
2023-05-08T07:38:34.803Z,3.77
2023-05-08T07:41:01.641Z,4.16
2023-05-08T07:43:28.503Z,4.25
2023-05-08T07:45:58.973Z,3.64
2023-05-08T07:48:25.850Z,3.18
2023-05-08T07:50:52.457Z,3.96
2023-05-08T07:56:08.158Z,3.15
2023-05-08T07:58:35.794Z,3.11
2023-05-08T08:01:02.454Z,3.17
2023-05-08T08:03:30.113Z,3.26
2023-05-08T08:05:56.753Z,3.20
2023-05-08T08:08:23.230Z,3.72
2023-05-08T08:10:49.752Z,3.80
2023-05-08T08:13:16.541Z,4.31
2023-05-08T08:15:43.188Z,4.19
2023-05-08T08:18:09.810Z,4.48
2023-05-08T08:20:36.587Z,4.17
2023-05-08T08:23:03.048Z,4.25
2023-05-08T08:25:29.738Z,4.37
2023-05-08T08:27:56.301Z,3.79
2023-05-08T08:30:23.268Z,3.68
2023-05-08T08:32:51.634Z,3.52
2023-05-08T08:35:18.423Z,3.71
2023-05-08T08:37:45.324Z,4.14
2023-05-08T08:40:12.457Z,3.81
2023-05-08T08:42:38.995Z,4.16
2023-05-08T08:45:08.501Z,4.03
2023-05-08T08:47:36.173Z,4.28
2023-05-08T08:50:03.146Z,4.19
2023-05-08T08:52:29.816Z,4.32
2023-05-08T08:54:58.890Z,4.08
2023-05-08T08:57:25.443Z,4.30
2023-05-08T08:59:52.016Z,4.05
2023-05-08T09:02:18.938Z,4.26
2023-05-08T09:04:45.930Z,4.28
2023-05-08T09:07:12.471Z,4.23
2023-05-08T09:09:40.026Z,3.80
2023-05-08T09:12:06.812Z,3.38
2023-05-08T09:14:40.265Z,3.11
2023-05-08T09:17:07.004Z,3.26
2023-05-08T09:19:33.836Z,3.35
2023-05-08T09:22:05.665Z,2.96
2023-05-08T09:24:32.859Z,2.91
2023-05-08T09:26:59.628Z,3.23
2023-05-08T09:29:26.444Z,2.86
2023-05-08T09:31:53.841Z,2.86
2023-05-08T09:34:21.536Z,2.73
2023-05-08T09:36:56.772Z,2.87
2023-05-08T09:39:25.737Z,2.80
2023-05-08T09:41:52.635Z,3.38
2023-05-08T09:44:21.015Z,3.18
2023-05-08T09:46:47.863Z,3.14
2023-05-08T09:49:17.596Z,3.17
2023-05-08T09:51:47.678Z,3.19
2023-05-08T09:54:14.295Z,3.27
2023-05-08T09:59:26.414Z,2.96
2023-05-08T10:01:53.028Z,2.44
2023-05-08T10:04:21.339Z,2.29
2023-05-08T10:06:48.002Z,2.43
2023-05-08T10:09:14.560Z,2.41
2023-05-08T10:11:41.353Z,2.38
2023-05-08T10:14:07.862Z,2.53
2023-05-08T10:16:34.705Z,2.29
2023-05-08T10:19:05.287Z,2.20
2023-05-08T10:21:32.783Z,2.43
2023-05-08T10:26:57.112Z,2.24
2023-05-08T10:29:32.377Z,2.00
2023-05-08T10:31:59.159Z,2.39
2023-05-08T10:34:25.721Z,2.10
2023-05-08T10:36:53.934Z,2.37
2023-05-08T10:39:20.793Z,3.50
2023-05-08T10:41:47.613Z,2.15
2023-05-08T10:44:16.655Z,1.84
2023-05-08T10:46:43.593Z,2.19
2023-05-08T10:49:10.560Z,1.83
2023-05-08T10:51:38.253Z,1.93
2023-05-08T10:54:04.771Z,1.79
2023-05-08T10:56:33.414Z,2.15
2023-05-08T10:59:03.485Z,2.07
2023-05-08T11:01:30.103Z,2.07
2023-05-08T11:03:57.051Z,1.91
2023-05-08T11:06:23.689Z,2.30
2023-05-08T11:08:50.481Z,1.96
2023-05-08T11:11:17.401Z,1.88
2023-05-08T11:13:44.718Z,2.02
2023-05-08T11:16:13.464Z,2.20
2023-05-08T11:18:49.156Z,2.05
2023-05-08T11:21:16.343Z,1.97
2023-05-08T11:23:44.941Z,1.95
2023-05-08T11:26:11.485Z,2.32
2023-05-08T11:28:39.402Z,2.18
2023-05-08T11:31:06.011Z,2.27
2023-05-08T11:33:32.909Z,1.86
2023-05-08T11:36:01.057Z,1.67
2023-05-08T11:38:27.923Z,1.66
2023-05-08T11:40:55.549Z,1.57
2023-05-08T11:43:26.007Z,2.16
2023-05-08T11:45:53.227Z,1.71
2023-05-08T11:51:06.859Z,1.47
2023-05-08T11:53:34.680Z,1.99
2023-05-08T11:56:01.243Z,1.60
2023-05-08T11:58:27.984Z,1.67
2023-05-08T12:00:56.829Z,1.47
2023-05-08T12:03:23.827Z,1.57
2023-05-08T12:05:51.385Z,1.59
2023-05-08T12:11:08.612Z,1.44
2023-05-08T12:13:35.247Z,1.27
2023-05-08T12:16:02.945Z,1.36
2023-05-08T12:18:29.511Z,1.43
2023-05-08T12:20:56.356Z,1.83
2023-05-08T12:23:23.159Z,1.65
2023-05-08T12:25:51.359Z,1.45
2023-05-08T12:28:19.547Z,1.27
2023-05-08T12:30:46.369Z,1.06
2023-05-08T12:33:14.299Z,0.99
2023-05-08T12:35:40.794Z,1.03
2023-05-08T12:38:07.749Z,0.95
2023-05-08T12:40:34.357Z,1.03
2023-05-08T12:43:00.965Z,0.93
2023-05-08T12:45:27.549Z,1.08
2023-05-08T12:47:56.121Z,1.10
2023-05-08T12:50:23.229Z,1.05
2023-05-08T12:52:52.076Z,0.98
2023-05-08T12:55:21.196Z,1.10
2023-05-08T12:57:48.137Z,1.49
2023-05-08T13:00:17.162Z,1.33
2023-05-08T13:02:49.542Z,1.21
2023-05-08T13:05:16.423Z,1.37
2023-05-08T13:07:42.952Z,1.53
2023-05-08T13:10:11.956Z,1.53
2023-05-08T13:12:39.434Z,1.54
2023-05-08T13:15:06.326Z,1.67
2023-05-08T13:17:32.878Z,1.63
2023-05-08T13:20:00.634Z,1.87
2023-05-08T13:22:28.602Z,2.08
2023-05-08T13:24:55.146Z,2.04
2023-05-08T13:27:25.429Z,1.95
2023-05-08T13:29:52.506Z,1.73
2023-05-08T13:32:19.142Z,1.72
2023-05-08T13:34:51.411Z,1.84
2023-05-08T13:37:22.887Z,1.59
2023-05-08T13:39:49.788Z,1.57
2023-05-08T13:42:16.339Z,1.47
2023-05-08T13:44:43.243Z,1.46
2023-05-08T13:47:10.263Z,1.49
2023-05-08T13:49:38.635Z,1.49
2023-05-08T13:52:10.491Z,1.53
2023-05-08T13:54:37.207Z,1.54
2023-05-08T13:57:04.131Z,1.67
2023-05-08T13:59:31.808Z,2.08
2023-05-08T14:01:59.460Z,1.56
2023-05-08T14:04:26.083Z,1.42
2023-05-08T14:06:52.548Z,1.38
2023-05-08T14:09:20.823Z,1.48
2023-05-08T14:11:47.957Z,1.04
2023-05-08T14:14:15.940Z,1.18
2023-05-08T14:16:43.767Z,0.97
2023-05-08T14:19:10.451Z,1.14
2023-05-08T14:21:39.369Z,0.76
2023-05-08T14:24:06.064Z,0.95
2023-05-08T14:26:34.894Z,0.94
2023-05-08T14:29:01.592Z,0.95
2023-05-08T14:31:28.990Z,1.27
2023-05-08T14:33:55.662Z,1.50
2023-05-08T14:36:22.230Z,1.31
2023-05-08T14:38:48.781Z,1.26
2023-05-08T14:41:15.615Z,1.36
2023-05-08T14:43:42.141Z,1.43
2023-05-08T14:46:08.910Z,1.26
2023-05-08T14:48:36.635Z,1.51
2023-05-08T14:51:06.080Z,1.62
2023-05-08T14:53:33.090Z,1.33
2023-05-08T14:56:01.798Z,1.13
2023-05-08T14:58:29.621Z,1.42
2023-05-08T15:00:57.315Z,1.29
2023-05-08T15:03:24.352Z,1.52
2023-05-08T15:05:51.015Z,1.53
2023-05-08T15:08:17.575Z,1.46
2023-05-08T15:10:44.402Z,1.43
2023-05-08T15:13:11.865Z,1.44
2023-05-08T15:15:38.638Z,1.69
2023-05-08T15:18:05.553Z,1.38
2023-05-08T15:20:32.807Z,1.85
2023-05-08T15:22:59.655Z,1.55
2023-05-08T15:25:29.439Z,1.33
2023-05-08T15:27:56.804Z,1.32
2023-05-08T15:30:24.939Z,1.16
2023-05-08T15:32:51.532Z,1.38
2023-05-08T15:35:18.552Z,1.52
2023-05-08T15:37:45.064Z,1.32
2023-05-08T15:40:13.802Z,1.54
2023-05-08T15:42:41.649Z,1.30
2023-05-08T15:45:08.220Z,1.43
2023-05-08T15:47:37.228Z,1.47
2023-05-08T15:50:05.094Z,1.57
2023-05-08T15:52:41.939Z,1.48
2023-05-08T15:55:08.488Z,1.37
2023-05-08T15:57:35.145Z,1.74
2023-05-08T16:00:01.770Z,1.68
2023-05-08T16:02:28.631Z,1.47
2023-05-08T16:04:55.509Z,1.54
2023-05-08T16:07:22.067Z,1.85
2023-05-08T16:09:48.642Z,1.56
2023-05-08T16:12:16.150Z,1.60
2023-05-08T16:14:42.713Z,1.51
2023-05-08T16:17:12.593Z,1.68
2023-05-08T16:19:39.308Z,2.31
2023-05-08T16:22:06.108Z,2.92
2023-05-08T16:24:32.551Z,6.91
2023-05-08T16:27:01.302Z,3.91
2023-05-08T16:29:27.876Z,1.87
2023-05-08T16:31:55.200Z,1.47
2023-05-08T16:34:21.744Z,1.02
2023-05-08T16:36:48.728Z,1.12
2023-05-08T16:39:15.558Z,1.24
2023-05-08T16:41:42.084Z,1.23
2023-05-08T16:44:09.218Z,1.21
2023-05-08T16:46:36.846Z,1.11
2023-05-08T16:49:05.198Z,2.02
2023-05-08T16:51:32.187Z,1.38
2023-05-08T16:54:03.606Z,1.63
2023-05-08T16:56:31.114Z,1.43
2023-05-08T16:58:57.773Z,0.91
2023-05-08T17:01:25.424Z,1.21
2023-05-08T17:03:52.458Z,1.06
2023-05-08T17:06:19.307Z,1.38
2023-05-08T17:08:49.067Z,1.27
2023-05-08T17:11:29.908Z,1.27
2023-05-08T17:13:59.513Z,1.20
2023-05-08T17:16:27.102Z,1.17
2023-05-08T17:18:54.060Z,2.24
2023-05-08T17:21:20.496Z,1.17
2023-05-08T17:23:47.335Z,1.04
2023-05-08T17:26:13.843Z,1.26
2023-05-08T17:28:40.406Z,1.11
2023-05-08T17:31:10.783Z,1.18
2023-05-08T17:36:47.290Z,1.35
2023-05-08T17:39:13.821Z,1.32
2023-05-08T17:41:41.085Z,2.44
2023-05-08T17:44:15.025Z,2.41
2023-05-08T17:46:44.663Z,1.90
2023-05-08T17:49:12.245Z,2.06
2023-05-08T17:51:40.072Z,2.55
2023-05-08T17:54:08.953Z,1.43
2023-05-08T17:56:35.622Z,1.14
2023-05-08T17:59:02.383Z,1.19
2023-05-08T18:01:29.834Z,1.38
2023-05-08T18:03:56.469Z,1.58
2023-05-08T18:06:25.428Z,1.72
2023-05-08T18:08:51.925Z,1.94
2023-05-08T18:11:19.406Z,1.82
2023-05-08T18:13:46.188Z,1.75
2023-05-08T18:16:21.495Z,1.37
2023-05-08T18:18:48.428Z,1.87
2023-05-08T18:21:16.260Z,1.97
2023-05-08T18:23:43.555Z,3.39
2023-05-08T18:26:11.517Z,2.81
2023-05-08T18:28:38.401Z,2.38
2023-05-08T18:31:04.986Z,2.20
2023-05-08T18:33:32.547Z,2.27
2023-05-08T18:36:01.654Z,2.51
2023-05-08T18:38:28.255Z,2.69
2023-05-08T18:40:54.797Z,2.44
2023-05-08T18:43:21.408Z,1.83
2023-05-08T18:45:47.958Z,1.87
2023-05-08T18:48:15.837Z,1.98
2023-05-08T18:50:42.593Z,1.90
2023-05-08T18:53:09.100Z,2.02
2023-05-08T18:55:36.196Z,2.39
2023-05-08T18:58:05.739Z,2.28
2023-05-08T19:00:32.525Z,1.97
2023-05-08T19:02:59.579Z,1.87
2023-05-08T19:05:26.149Z,1.87
2023-05-08T19:07:54.481Z,2.43
2023-05-08T19:10:21.128Z,2.04
2023-05-08T19:12:53.821Z,2.04
2023-05-08T19:15:29.914Z,2.34
2023-05-08T19:21:22.453Z,2.77
2023-05-08T19:23:48.932Z,19.70
2023-05-08T19:26:16.428Z,150.06
2023-05-08T19:28:43.258Z,7.80
2023-05-08T19:31:10.987Z,10.36
2023-05-08T19:33:46.171Z,4.29
2023-05-08T19:36:12.942Z,2.44
2023-05-08T19:38:39.816Z,2.86
2023-05-08T19:41:06.391Z,2.27
2023-05-08T19:43:33.499Z,2.25
2023-05-08T19:46:00.295Z,2.04
2023-05-08T19:48:26.859Z,20.40
2023-05-08T19:50:55.023Z,13.74
2023-05-08T19:53:22.182Z,28.68
2023-05-08T19:55:51.376Z,16.86
2023-05-08T19:58:18.021Z,8.46
2023-05-08T20:00:50.847Z,22.52
2023-05-08T20:03:18.487Z,123.68
2023-05-08T20:05:45.241Z,366.92
2023-05-08T20:08:11.724Z,189.07
2023-05-08T20:10:38.487Z,149.73
2023-05-08T20:13:05.386Z,104.84
2023-05-08T20:15:32.058Z,219.31
2023-05-08T20:17:59.771Z,65.01
2023-05-08T20:20:26.348Z,37.96
2023-05-08T20:22:53.820Z,20.82
2023-05-08T20:25:23.246Z,6.54
2023-05-08T20:27:50.156Z,2.78
2023-05-08T20:30:17.535Z,1.92
2023-05-08T20:32:44.323Z,1.59
2023-05-08T20:35:13.285Z,50.24
2023-05-08T20:37:45.516Z,18.03
2023-05-08T20:40:13.667Z,1.71
2023-05-08T20:42:40.623Z,1.24
2023-05-08T20:45:09.637Z,1.23
2023-05-08T20:47:36.542Z,1.28
2023-05-08T20:50:10.287Z,1.34
2023-05-08T20:52:38.397Z,1.32
2023-05-08T20:55:06.203Z,1.28
2023-05-08T20:57:37.502Z,1.21
2023-05-08T21:00:04.328Z,1.00
2023-05-08T21:02:30.843Z,1.26
2023-05-08T21:04:57.454Z,1.25
2023-05-08T21:07:24.078Z,1.18
2023-05-08T21:09:50.624Z,0.91
2023-05-08T21:12:17.138Z,1.23
2023-05-08T21:14:43.624Z,1.17
2023-05-08T21:17:10.181Z,1.20
2023-05-08T21:19:37.466Z,1.13
2023-05-08T21:22:04.262Z,1.05
2023-05-08T21:24:32.732Z,1.25
2023-05-08T21:27:02.275Z,1.22
2023-05-08T21:29:29.190Z,1.26
2023-05-08T21:31:56.071Z,0.99
2023-05-08T21:34:22.902Z,1.13
2023-05-08T21:36:49.873Z,1.05
2023-05-08T21:42:19.831Z,1.19
2023-05-08T21:44:46.693Z,1.31
2023-05-08T21:47:14.190Z,1.25
2023-05-08T21:49:40.997Z,1.43
2023-05-08T21:52:07.765Z,1.44
2023-05-08T21:54:34.605Z,1.41
2023-05-08T21:57:01.124Z,1.46
2023-05-08T21:59:27.687Z,1.50
2023-05-08T22:01:54.269Z,1.52
2023-05-08T22:04:20.897Z,1.65
2023-05-08T22:06:47.449Z,1.68
2023-05-08T22:09:13.904Z,1.41
2023-05-08T22:11:40.520Z,1.58
2023-05-08T22:14:07.321Z,1.45
2023-05-08T22:16:37.259Z,1.71
2023-05-08T22:19:25.128Z,1.54
2023-05-08T22:21:52.702Z,1.51
2023-05-08T22:24:19.752Z,1.52
2023-05-08T22:27:05.558Z,1.38
2023-05-08T22:29:32.390Z,1.44
2023-05-08T22:31:58.999Z,1.35
2023-05-08T22:34:25.587Z,1.58
2023-05-08T22:36:52.207Z,1.52
2023-05-08T22:39:19.593Z,1.56
2023-05-08T22:41:48.206Z,1.69
2023-05-08T22:44:15.514Z,1.59
2023-05-08T22:46:42.182Z,1.54
2023-05-08T22:49:09.212Z,1.48
2023-05-08T22:51:35.837Z,1.56
2023-05-08T22:54:02.633Z,1.55
2023-05-08T22:56:29.482Z,1.58
2023-05-08T22:58:57.992Z,1.72
2023-05-08T23:01:31.771Z,1.44
2023-05-08T23:03:58.735Z,1.56
2023-05-08T23:06:25.287Z,1.60
2023-05-08T23:08:58.633Z,1.71
2023-05-08T23:11:25.261Z,1.56
2023-05-08T23:13:55.081Z,1.56
2023-05-08T23:16:21.925Z,1.62
2023-05-08T23:18:48.507Z,1.58
2023-05-08T23:21:15.076Z,1.40
2023-05-08T23:23:41.575Z,1.66
2023-05-08T23:26:08.141Z,1.44
2023-05-08T23:28:34.727Z,1.62
2023-05-08T23:31:01.668Z,1.57
2023-05-08T23:33:28.649Z,1.34
2023-05-08T23:35:55.259Z,1.54
2023-05-08T23:38:21.874Z,1.62
2023-05-08T23:40:48.762Z,1.47
2023-05-08T23:43:15.292Z,1.54
2023-05-08T23:48:44.722Z,1.37
2023-05-08T23:51:11.566Z,1.48
2023-05-08T23:53:38.135Z,1.72
2023-05-08T23:56:04.827Z,1.68
